sensor_id;sensor_type;location;lat;lon;timestamp;P1;durP1;ratioP1;P2;durP2;ratioP2
64950;SDS011;51482;47.014;7.652;2022-10-19T00:00:45;5.88;;;4.57;;
64950;SDS011;51482;47.014;7.652;2022-10-19T00:03:10;11.27;;;4.35;;
64950;SDS011;51482;47.014;7.652;2022-10-19T00:05:36;7.47;;;4.50;;
64950;SDS011;51482;47.014;7.652;2022-10-19T00:08:01;5.55;;;4.72;;
64950;SDS011;51482;47.014;7.652;2022-10-19T00:10:27;8.25;;;5.07;;
64950;SDS011;51482;47.014;7.652;2022-10-19T00:12:53;8.85;;;4.90;;
64950;SDS011;51482;47.014;7.652;2022-10-19T00:15:19;10.02;;;4.55;;
64950;SDS011;51482;47.014;7.652;2022-10-19T00:17:44;9.85;;;4.40;;
64950;SDS011;51482;47.014;7.652;2022-10-19T00:20:10;5.05;;;4.28;;
64950;SDS011;51482;47.014;7.652;2022-10-19T00:22:36;7.55;;;4.63;;
64950;SDS011;51482;47.014;7.652;2022-10-19T00:25:02;5.90;;;4.07;;
64950;SDS011;51482;47.014;7.652;2022-10-19T00:27:28;6.68;;;4.30;;
64950;SDS011;51482;47.014;7.652;2022-10-19T00:29:54;6.93;;;4.28;;
64950;SDS011;51482;47.014;7.652;2022-10-19T00:32:19;5.43;;;4.45;;
64950;SDS011;51482;47.014;7.652;2022-10-19T00:34:45;7.38;;;3.92;;
64950;SDS011;51482;47.014;7.652;2022-10-19T00:37:10;6.68;;;4.90;;
64950;SDS011;51482;47.014;7.652;2022-10-19T00:39:36;7.72;;;4.32;;
64950;SDS011;51482;47.014;7.652;2022-10-19T00:42:02;5.80;;;4.82;;
64950;SDS011;51482;47.014;7.652;2022-10-19T00:46:53;8.65;;;4.68;;
64950;SDS011;51482;47.014;7.652;2022-10-19T00:49:24;5.15;;;4.13;;
64950;SDS011;51482;47.014;7.652;2022-10-19T00:51:54;7.97;;;4.90;;
64950;SDS011;51482;47.014;7.652;2022-10-19T00:54:23;6.95;;;4.38;;
64950;SDS011;51482;47.014;7.652;2022-10-19T00:56:51;7.10;;;4.30;;
64950;SDS011;51482;47.014;7.652;2022-10-19T00:59:19;9.93;;;4.40;;
64950;SDS011;51482;47.014;7.652;2022-10-19T01:01:47;7.78;;;5.45;;
64950;SDS011;51482;47.014;7.652;2022-10-19T01:04:13;11.00;;;4.55;;
64950;SDS011;51482;47.014;7.652;2022-10-19T01:06:40;7.95;;;3.97;;
64950;SDS011;51482;47.014;7.652;2022-10-19T01:09:07;10.32;;;4.45;;
64950;SDS011;51482;47.014;7.652;2022-10-19T01:17:09;7.32;;;4.47;;
64950;SDS011;51482;47.014;7.652;2022-10-19T01:31:42;7.13;;;3.97;;
64950;SDS011;51482;47.014;7.652;2022-10-19T01:34:11;7.20;;;4.60;;
64950;SDS011;51482;47.014;7.652;2022-10-19T01:37:04;7.87;;;4.37;;
64950;SDS011;51482;47.014;7.652;2022-10-19T01:42:08;9.43;;;4.13;;
64950;SDS011;51482;47.014;7.652;2022-10-19T01:44:48;4.87;;;4.37;;
64950;SDS011;51482;47.014;7.652;2022-10-19T01:47:29;6.20;;;4.30;;
64950;SDS011;51482;47.014;7.652;2022-10-19T01:50:28;5.47;;;3.75;;
64950;SDS011;51482;47.014;7.652;2022-10-19T01:52:59;6.27;;;4.20;;
64950;SDS011;51482;47.014;7.652;2022-10-19T01:55:26;7.70;;;3.97;;
64950;SDS011;51482;47.014;7.652;2022-10-19T01:57:57;6.47;;;4.37;;
64950;SDS011;51482;47.014;7.652;2022-10-19T02:00:26;7.63;;;3.90;;
64950;SDS011;51482;47.014;7.652;2022-10-19T02:02:53;7.37;;;4.17;;
64950;SDS011;51482;47.014;7.652;2022-10-19T02:05:21;6.97;;;4.00;;
64950;SDS011;51482;47.014;7.652;2022-10-19T02:07:56;9.73;;;4.70;;
64950;SDS011;51482;47.014;7.652;2022-10-19T02:10:24;9.87;;;5.33;;
64950;SDS011;51482;47.014;7.652;2022-10-19T02:12:51;9.40;;;5.37;;
64950;SDS011;51482;47.014;7.652;2022-10-19T02:15:20;11.67;;;4.80;;
64950;SDS011;51482;47.014;7.652;2022-10-19T02:17:48;8.37;;;5.07;;
64950;SDS011;51482;47.014;7.652;2022-10-19T02:20:16;10.83;;;5.20;;
64950;SDS011;51482;47.014;7.652;2022-10-19T02:22:43;8.70;;;4.57;;
64950;SDS011;51482;47.014;7.652;2022-10-19T02:25:09;7.17;;;4.60;;
64950;SDS011;51482;47.014;7.652;2022-10-19T02:27:36;6.87;;;4.20;;
64950;SDS011;51482;47.014;7.652;2022-10-19T02:30:06;11.27;;;4.80;;
64950;SDS011;51482;47.014;7.652;2022-10-19T02:32:39;11.27;;;4.90;;
64950;SDS011;51482;47.014;7.652;2022-10-19T02:35:06;6.60;;;4.50;;
64950;SDS011;51482;47.014;7.652;2022-10-19T02:37:31;5.53;;;3.93;;
64950;SDS011;51482;47.014;7.652;2022-10-19T02:39:57;6.40;;;4.30;;
64950;SDS011;51482;47.014;7.652;2022-10-19T02:42:26;7.03;;;4.10;;
64950;SDS011;51482;47.014;7.652;2022-10-19T02:44:57;6.33;;;4.30;;
64950;SDS011;51482;47.014;7.652;2022-10-19T02:47:32;9.70;;;5.50;;
64950;SDS011;51482;47.014;7.652;2022-10-19T02:50:04;7.77;;;4.27;;
64950;SDS011;51482;47.014;7.652;2022-10-19T02:52:31;7.20;;;4.00;;
64950;SDS011;51482;47.014;7.652;2022-10-19T02:54:57;6.73;;;4.50;;
64950;SDS011;51482;47.014;7.652;2022-10-19T02:57:23;6.30;;;4.07;;
64950;SDS011;51482;47.014;7.652;2022-10-19T02:59:50;7.73;;;4.40;;
64950;SDS011;51482;47.014;7.652;2022-10-19T03:02:16;8.33;;;4.23;;
64950;SDS011;51482;47.014;7.652;2022-10-19T03:04:42;8.83;;;3.90;;
64950;SDS011;51482;47.014;7.652;2022-10-19T03:07:10;4.73;;;3.80;;
64950;SDS011;51482;47.014;7.652;2022-10-19T03:09:36;6.83;;;4.50;;
64950;SDS011;51482;47.014;7.652;2022-10-19T03:12:02;5.27;;;4.17;;
64950;SDS011;51482;47.014;7.652;2022-10-19T03:14:27;9.60;;;4.00;;
64950;SDS011;51482;47.014;7.652;2022-10-19T03:16:53;4.50;;;4.00;;
64950;SDS011;51482;47.014;7.652;2022-10-19T03:19:19;7.20;;;4.17;;
64950;SDS011;51482;47.014;7.652;2022-10-19T03:21:44;6.80;;;4.23;;
64950;SDS011;51482;47.014;7.652;2022-10-19T03:24:10;8.63;;;4.87;;
64950;SDS011;51482;47.014;7.652;2022-10-19T03:26:36;5.33;;;4.00;;
64950;SDS011;51482;47.014;7.652;2022-10-19T03:29:01;8.63;;;4.30;;
64950;SDS011;51482;47.014;7.652;2022-10-19T03:31:27;5.07;;;4.33;;
64950;SDS011;51482;47.014;7.652;2022-10-19T03:33:52;4.77;;;3.73;;
64950;SDS011;51482;47.014;7.652;2022-10-19T03:36:20;6.10;;;4.00;;
64950;SDS011;51482;47.014;7.652;2022-10-19T03:38:46;8.30;;;4.67;;
64950;SDS011;51482;47.014;7.652;2022-10-19T03:41:13;7.13;;;4.50;;
64950;SDS011;51482;47.014;7.652;2022-10-19T03:43:39;8.63;;;4.43;;
64950;SDS011;51482;47.014;7.652;2022-10-19T03:46:05;6.23;;;4.10;;
64950;SDS011;51482;47.014;7.652;2022-10-19T03:48:31;7.17;;;4.53;;
64950;SDS011;51482;47.014;7.652;2022-10-19T03:50:58;5.90;;;4.03;;
64950;SDS011;51482;47.014;7.652;2022-10-19T03:53:24;8.27;;;4.77;;
64950;SDS011;51482;47.014;7.652;2022-10-19T03:55:50;7.20;;;4.50;;
64950;SDS011;51482;47.014;7.652;2022-10-19T03:58:15;4.83;;;4.10;;
64950;SDS011;51482;47.014;7.652;2022-10-19T04:00:41;6.17;;;4.33;;
64950;SDS011;51482;47.014;7.652;2022-10-19T04:03:06;9.77;;;4.17;;
64950;SDS011;51482;47.014;7.652;2022-10-19T04:05:32;10.53;;;4.80;;
64950;SDS011;51482;47.014;7.652;2022-10-19T04:07:58;6.53;;;4.40;;
64950;SDS011;51482;47.014;7.652;2022-10-19T04:10:23;6.60;;;4.47;;
64950;SDS011;51482;47.014;7.652;2022-10-19T04:12:49;9.17;;;4.40;;
64950;SDS011;51482;47.014;7.652;2022-10-19T04:15:14;9.70;;;5.00;;
64950;SDS011;51482;47.014;7.652;2022-10-19T04:17:40;9.30;;;5.17;;
64950;SDS011;51482;47.014;7.652;2022-10-19T04:20:05;6.63;;;4.57;;
64950;SDS011;51482;47.014;7.652;2022-10-19T04:22:31;8.93;;;4.73;;
64950;SDS011;51482;47.014;7.652;2022-10-19T04:24:56;7.83;;;3.93;;
64950;SDS011;51482;47.014;7.652;2022-10-19T04:27:22;9.00;;;4.17;;
64950;SDS011;51482;47.014;7.652;2022-10-19T04:29:48;8.80;;;4.00;;
64950;SDS011;51482;47.014;7.652;2022-10-19T04:32:13;9.17;;;4.30;;
64950;SDS011;51482;47.014;7.652;2022-10-19T04:34:39;8.37;;;4.03;;
64950;SDS011;51482;47.014;7.652;2022-10-19T04:37:04;9.00;;;4.23;;
64950;SDS011;51482;47.014;7.652;2022-10-19T04:39:30;7.07;;;4.53;;
64950;SDS011;51482;47.014;7.652;2022-10-19T04:41:55;6.47;;;4.30;;
64950;SDS011;51482;47.014;7.652;2022-10-19T04:44:21;10.47;;;6.13;;
64950;SDS011;51482;47.014;7.652;2022-10-19T04:46:46;7.67;;;4.03;;
64950;SDS011;51482;47.014;7.652;2022-10-19T04:49:12;8.37;;;4.00;;
64950;SDS011;51482;47.014;7.652;2022-10-19T04:51:37;6.53;;;4.37;;
64950;SDS011;51482;47.014;7.652;2022-10-19T04:54:03;9.00;;;4.10;;
64950;SDS011;51482;47.014;7.652;2022-10-19T04:56:29;6.50;;;4.77;;
64950;SDS011;51482;47.014;7.652;2022-10-19T04:58:56;10.13;;;4.23;;
64950;SDS011;51482;47.014;7.652;2022-10-19T05:01:23;9.00;;;4.40;;
64950;SDS011;51482;47.014;7.652;2022-10-19T05:03:53;5.07;;;4.03;;
64950;SDS011;51482;47.014;7.652;2022-10-19T05:06:20;8.07;;;4.57;;
64950;SDS011;51482;47.014;7.652;2022-10-19T05:08:46;7.30;;;4.83;;
64950;SDS011;51482;47.014;7.652;2022-10-19T05:11:14;9.37;;;4.30;;
64950;SDS011;51482;47.014;7.652;2022-10-19T05:13:41;8.77;;;5.40;;
64950;SDS011;51482;47.014;7.652;2022-10-19T05:16:10;14.90;;;7.10;;
64950;SDS011;51482;47.014;7.652;2022-10-19T05:18:37;8.83;;;5.33;;
64950;SDS011;51482;47.014;7.652;2022-10-19T05:21:04;10.13;;;4.57;;
64950;SDS011;51482;47.014;7.652;2022-10-19T05:23:34;6.93;;;4.37;;
64950;SDS011;51482;47.014;7.652;2022-10-19T05:26:00;10.17;;;4.80;;
64950;SDS011;51482;47.014;7.652;2022-10-19T05:28:27;9.10;;;4.80;;
64950;SDS011;51482;47.014;7.652;2022-10-19T05:30:53;9.03;;;4.67;;
64950;SDS011;51482;47.014;7.652;2022-10-19T05:33:19;5.97;;;4.40;;
64950;SDS011;51482;47.014;7.652;2022-10-19T05:35:45;7.47;;;4.60;;
64950;SDS011;51482;47.014;7.652;2022-10-19T05:38:11;5.97;;;4.50;;
64950;SDS011;51482;47.014;7.652;2022-10-19T05:40:36;8.00;;;4.40;;
64950;SDS011;51482;47.014;7.652;2022-10-19T05:43:02;7.43;;;4.37;;
64950;SDS011;51482;47.014;7.652;2022-10-19T05:45:27;6.13;;;4.33;;
64950;SDS011;51482;47.014;7.652;2022-10-19T05:47:53;7.60;;;5.10;;
64950;SDS011;51482;47.014;7.652;2022-10-19T05:50:18;8.23;;;5.03;;
64950;SDS011;51482;47.014;7.652;2022-10-19T05:52:44;6.67;;;4.83;;
64950;SDS011;51482;47.014;7.652;2022-10-19T05:55:09;7.37;;;4.80;;
64950;SDS011;51482;47.014;7.652;2022-10-19T05:57:35;8.93;;;5.30;;
64950;SDS011;51482;47.014;7.652;2022-10-19T06:00:01;11.03;;;5.23;;
64950;SDS011;51482;47.014;7.652;2022-10-19T06:02:28;9.53;;;5.33;;
64950;SDS011;51482;47.014;7.652;2022-10-19T06:04:54;13.23;;;5.00;;
64950;SDS011;51482;47.014;7.652;2022-10-19T06:07:20;7.17;;;4.30;;
64950;SDS011;51482;47.014;7.652;2022-10-19T06:09:46;6.83;;;4.57;;
64950;SDS011;51482;47.014;7.652;2022-10-19T06:12:12;9.90;;;4.80;;
64950;SDS011;51482;47.014;7.652;2022-10-19T06:14:37;11.47;;;5.40;;
64950;SDS011;51482;47.014;7.652;2022-10-19T06:17:03;7.43;;;4.70;;
64950;SDS011;51482;47.014;7.652;2022-10-19T06:19:28;10.53;;;5.57;;
64950;SDS011;51482;47.014;7.652;2022-10-19T06:21:54;9.10;;;4.80;;
64950;SDS011;51482;47.014;7.652;2022-10-19T06:24:19;6.93;;;4.50;;
64950;SDS011;51482;47.014;7.652;2022-10-19T06:26:45;6.47;;;4.43;;
64950;SDS011;51482;47.014;7.652;2022-10-19T06:29:10;9.70;;;5.73;;
64950;SDS011;51482;47.014;7.652;2022-10-19T06:31:36;9.90;;;4.90;;
64950;SDS011;51482;47.014;7.652;2022-10-19T06:34:02;7.10;;;4.70;;
64950;SDS011;51482;47.014;7.652;2022-10-19T06:36:29;6.87;;;4.60;;
64950;SDS011;51482;47.014;7.652;2022-10-19T06:38:55;9.50;;;4.50;;
64950;SDS011;51482;47.014;7.652;2022-10-19T06:41:20;8.80;;;4.10;;
64950;SDS011;51482;47.014;7.652;2022-10-19T06:43:47;13.70;;;4.20;;
64950;SDS011;51482;47.014;7.652;2022-10-19T06:46:17;5.57;;;3.57;;
64950;SDS011;51482;47.014;7.652;2022-10-19T06:48:51;6.30;;;3.53;;
64950;SDS011;51482;47.014;7.652;2022-10-19T06:51:17;7.20;;;3.80;;
64950;SDS011;51482;47.014;7.652;2022-10-19T06:53:42;6.10;;;4.47;;
64950;SDS011;51482;47.014;7.652;2022-10-19T06:56:08;8.07;;;4.00;;
64950;SDS011;51482;47.014;7.652;2022-10-19T06:58:37;6.70;;;4.40;;
64950;SDS011;51482;47.014;7.652;2022-10-19T07:01:03;7.73;;;4.47;;
64950;SDS011;51482;47.014;7.652;2022-10-19T07:03:31;6.60;;;4.53;;
64950;SDS011;51482;47.014;7.652;2022-10-19T07:06:01;6.77;;;4.33;;
64950;SDS011;51482;47.014;7.652;2022-10-19T07:08:32;11.17;;;4.40;;
64950;SDS011;51482;47.014;7.652;2022-10-19T07:11:00;9.13;;;4.50;;
64950;SDS011;51482;47.014;7.652;2022-10-19T07:13:27;6.20;;;4.33;;
64950;SDS011;51482;47.014;7.652;2022-10-19T07:15:57;9.47;;;4.43;;
64950;SDS011;51482;47.014;7.652;2022-10-19T07:18:29;5.80;;;4.07;;
64950;SDS011;51482;47.014;7.652;2022-10-19T07:20:56;6.60;;;4.30;;
64950;SDS011;51482;47.014;7.652;2022-10-19T07:23:23;4.40;;;3.87;;
64950;SDS011;51482;47.014;7.652;2022-10-19T07:25:50;8.48;;;3.80;;
64950;SDS011;51482;47.014;7.652;2022-10-19T07:28:18;6.27;;;3.60;;
64950;SDS011;51482;47.014;7.652;2022-10-19T07:30:45;8.93;;;3.40;;
64950;SDS011;51482;47.014;7.652;2022-10-19T07:33:11;4.90;;;3.27;;
64950;SDS011;51482;47.014;7.652;2022-10-19T07:35:36;22.97;;;5.37;;
64950;SDS011;51482;47.014;7.652;2022-10-19T07:38:02;7.13;;;4.00;;
64950;SDS011;51482;47.014;7.652;2022-10-19T07:40:27;9.43;;;4.10;;
64950;SDS011;51482;47.014;7.652;2022-10-19T07:42:53;29.43;;;8.53;;
64950;SDS011;51482;47.014;7.652;2022-10-19T07:45:19;42.13;;;8.05;;
64950;SDS011;51482;47.014;7.652;2022-10-19T07:47:44;9.77;;;3.77;;
64950;SDS011;51482;47.014;7.652;2022-10-19T07:50:10;6.32;;;3.80;;
64950;SDS011;51482;47.014;7.652;2022-10-19T07:52:35;8.60;;;4.03;;
64950;SDS011;51482;47.014;7.652;2022-10-19T07:55:01;14.40;;;4.20;;
64950;SDS011;51482;47.014;7.652;2022-10-19T07:57:26;7.93;;;4.00;;
64950;SDS011;51482;47.014;7.652;2022-10-19T07:59:52;8.77;;;3.90;;
64950;SDS011;51482;47.014;7.652;2022-10-19T08:02:18;6.63;;;3.53;;
64950;SDS011;51482;47.014;7.652;2022-10-19T08:04:44;4.82;;;3.83;;
64950;SDS011;51482;47.014;7.652;2022-10-19T08:07:10;9.45;;;4.13;;
64950;SDS011;51482;47.014;7.652;2022-10-19T08:09:35;10.25;;;3.83;;
64950;SDS011;51482;47.014;7.652;2022-10-19T08:12:01;7.20;;;3.50;;
64950;SDS011;51482;47.014;7.652;2022-10-19T08:14:27;9.30;;;4.00;;
64950;SDS011;51482;47.014;7.652;2022-10-19T08:16:53;11.73;;;4.78;;
64950;SDS011;51482;47.014;7.652;2022-10-19T08:19:18;6.40;;;3.92;;
64950;SDS011;51482;47.014;7.652;2022-10-19T08:21:45;7.65;;;4.20;;
64950;SDS011;51482;47.014;7.652;2022-10-19T08:24:12;7.53;;;4.82;;
64950;SDS011;51482;47.014;7.652;2022-10-19T08:26:38;7.97;;;3.70;;
64950;SDS011;51482;47.014;7.652;2022-10-19T08:29:10;9.07;;;4.28;;
64950;SDS011;51482;47.014;7.652;2022-10-19T08:31:37;6.50;;;3.72;;
64950;SDS011;51482;47.014;7.652;2022-10-19T08:34:04;13.65;;;5.18;;
64950;SDS011;51482;47.014;7.652;2022-10-19T08:36:29;6.28;;;3.60;;
64950;SDS011;51482;47.014;7.652;2022-10-19T08:38:56;8.68;;;3.85;;
64950;SDS011;51482;47.014;7.652;2022-10-19T08:49:42;5.80;;;3.50;;
64950;SDS011;51482;47.014;7.652;2022-10-19T08:52:19;7.63;;;3.70;;
64950;SDS011;51482;47.014;7.652;2022-10-19T08:57:29;5.70;;;4.20;;
64950;SDS011;51482;47.014;7.652;2022-10-19T09:02:58;6.80;;;4.05;;
64950;SDS011;51482;47.014;7.652;2022-10-19T09:08:19;7.55;;;4.85;;
64950;SDS011;51482;47.014;7.652;2022-10-19T09:10:46;10.52;;;5.22;;
64950;SDS011;51482;47.014;7.652;2022-10-19T09:13:16;6.80;;;4.88;;
64950;SDS011;51482;47.014;7.652;2022-10-19T09:15:59;11.07;;;5.30;;
64950;SDS011;51482;47.014;7.652;2022-10-19T09:18:27;11.07;;;5.88;;
64950;SDS011;51482;47.014;7.652;2022-10-19T09:20:57;11.73;;;7.07;;
64950;SDS011;51482;47.014;7.652;2022-10-19T09:26:41;9.55;;;8.15;;
64950;SDS011;51482;47.014;7.652;2022-10-19T09:29:21;11.90;;;8.02;;
64950;SDS011;51482;47.014;7.652;2022-10-19T09:31:53;8.90;;;6.95;;
64950;SDS011;51482;47.014;7.652;2022-10-19T09:34:37;9.48;;;6.45;;
64950;SDS011;51482;47.014;7.652;2022-10-19T09:37:08;9.98;;;8.00;;
64950;SDS011;51482;47.014;7.652;2022-10-19T09:39:36;13.88;;;8.43;;
64950;SDS011;51482;47.014;7.652;2022-10-19T09:42:13;12.02;;;8.07;;
64950;SDS011;51482;47.014;7.652;2022-10-19T09:44:45;9.95;;;8.02;;
64950;SDS011;51482;47.014;7.652;2022-10-19T09:52:47;9.98;;;8.23;;
64950;SDS011;51482;47.014;7.652;2022-10-19T09:55:34;10.95;;;8.23;;
64950;SDS011;51482;47.014;7.652;2022-10-19T10:00:39;11.70;;;9.02;;
64950;SDS011;51482;47.014;7.652;2022-10-19T10:03:07;12.07;;;8.63;;
64950;SDS011;51482;47.014;7.652;2022-10-19T10:06:14;10.07;;;9.02;;
64950;SDS011;51482;47.014;7.652;2022-10-19T10:08:48;11.82;;;8.65;;
64950;SDS011;51482;47.014;7.652;2022-10-19T10:11:35;10.30;;;8.50;;
64950;SDS011;51482;47.014;7.652;2022-10-19T10:16:54;13.05;;;9.18;;
64950;SDS011;51482;47.014;7.652;2022-10-19T10:19:21;12.23;;;8.63;;
64950;SDS011;51482;47.014;7.652;2022-10-19T10:21:53;9.73;;;8.68;;
64950;SDS011;51482;47.014;7.652;2022-10-19T10:24:21;11.93;;;8.95;;
64950;SDS011;51482;47.014;7.652;2022-10-19T10:26:58;12.50;;;9.50;;
64950;SDS011;51482;47.014;7.652;2022-10-19T10:29:27;12.15;;;9.75;;
64950;SDS011;51482;47.014;7.652;2022-10-19T10:34:35;10.10;;;9.10;;
64950;SDS011;51482;47.014;7.652;2022-10-19T10:37:03;14.15;;;9.98;;
64950;SDS011;51482;47.014;7.652;2022-10-19T10:39:31;11.95;;;10.13;;
64950;SDS011;51482;47.014;7.652;2022-10-19T10:41:59;16.48;;;10.65;;
64950;SDS011;51482;47.014;7.652;2022-10-19T10:44:32;13.13;;;10.43;;
64950;SDS011;51482;47.014;7.652;2022-10-19T10:47:01;12.93;;;10.63;;
64950;SDS011;51482;47.014;7.652;2022-10-19T10:49:33;11.85;;;10.63;;
64950;SDS011;51482;47.014;7.652;2022-10-19T10:52:04;13.82;;;11.10;;
64950;SDS011;51482;47.014;7.652;2022-10-19T10:54:33;14.20;;;9.88;;
64950;SDS011;51482;47.014;7.652;2022-10-19T11:02:30;13.13;;;11.43;;
64950;SDS011;51482;47.014;7.652;2022-10-19T11:07:36;14.32;;;11.85;;
64950;SDS011;51482;47.014;7.652;2022-10-19T11:10:13;13.13;;;10.60;;
64950;SDS011;51482;47.014;7.652;2022-10-19T11:12:48;13.93;;;11.00;;
64950;SDS011;51482;47.014;7.652;2022-10-19T11:17:56;12.57;;;10.98;;
64950;SDS011;51482;47.014;7.652;2022-10-19T11:20:29;13.05;;;9.93;;
64950;SDS011;51482;47.014;7.652;2022-10-19T11:23:00;12.30;;;9.82;;
64950;SDS011;51482;47.014;7.652;2022-10-19T11:28:42;12.57;;;9.48;;
64950;SDS011;51482;47.014;7.652;2022-10-19T11:31:19;12.82;;;10.15;;
64950;SDS011;51482;47.014;7.652;2022-10-19T11:39:17;11.43;;;10.32;;
64950;SDS011;51482;47.014;7.652;2022-10-19T11:42:18;13.30;;;9.75;;
64950;SDS011;51482;47.014;7.652;2022-10-19T11:53:00;10.68;;;9.50;;
64950;SDS011;51482;47.014;7.652;2022-10-19T11:58:44;12.05;;;9.88;;
64950;SDS011;51482;47.014;7.652;2022-10-19T12:01:24;13.43;;;10.68;;
64950;SDS011;51482;47.014;7.652;2022-10-19T12:07:03;13.35;;;9.75;;
64950;SDS011;51482;47.014;7.652;2022-10-19T12:09:48;12.35;;;9.38;;
64950;SDS011;51482;47.014;7.652;2022-10-19T12:12:36;12.93;;;9.75;;
64950;SDS011;51482;47.014;7.652;2022-10-19T12:17:50;10.25;;;8.40;;
64950;SDS011;51482;47.014;7.652;2022-10-19T12:20:29;16.58;;;9.95;;
64950;SDS011;51482;47.014;7.652;2022-10-19T12:23:31;13.13;;;8.43;;
64950;SDS011;51482;47.014;7.652;2022-10-19T12:26:00;13.20;;;9.88;;
64950;SDS011;51482;47.014;7.652;2022-10-19T12:28:28;12.77;;;8.95;;
64950;SDS011;51482;47.014;7.652;2022-10-19T12:30:56;11.00;;;9.32;;
64950;SDS011;51482;47.014;7.652;2022-10-19T12:33:30;10.18;;;9.15;;
64950;SDS011;51482;47.014;7.652;2022-10-19T12:36:05;10.52;;;8.52;;
64950;SDS011;51482;47.014;7.652;2022-10-19T12:38:55;12.18;;;9.77;;
64950;SDS011;51482;47.014;7.652;2022-10-19T12:46:48;11.63;;;10.25;;
64950;SDS011;51482;47.014;7.652;2022-10-19T12:52:36;11.32;;;8.77;;
64950;SDS011;51482;47.014;7.652;2022-10-19T12:55:29;10.40;;;8.18;;
64950;SDS011;51482;47.014;7.652;2022-10-19T12:58:03;10.98;;;9.27;;
64950;SDS011;51482;47.014;7.652;2022-10-19T13:00:34;9.98;;;8.50;;
64950;SDS011;51482;47.014;7.652;2022-10-19T13:03:20;10.82;;;8.38;;
64950;SDS011;51482;47.014;7.652;2022-10-19T13:05:56;9.93;;;7.57;;
64950;SDS011;51482;47.014;7.652;2022-10-19T13:08:28;8.10;;;7.30;;
64950;SDS011;51482;47.014;7.652;2022-10-19T13:11:04;9.38;;;8.25;;
64950;SDS011;51482;47.014;7.652;2022-10-19T13:17:00;11.32;;;9.63;;
64950;SDS011;51482;47.014;7.652;2022-10-19T13:19:27;13.60;;;8.73;;
64950;SDS011;51482;47.014;7.652;2022-10-19T13:43:15;10.40;;;7.20;;
64950;SDS011;51482;47.014;7.652;2022-10-19T13:45:51;11.35;;;8.18;;
64950;SDS011;51482;47.014;7.652;2022-10-19T13:51:21;11.43;;;8.20;;
64950;SDS011;51482;47.014;7.652;2022-10-19T13:54:08;9.32;;;7.60;;
64950;SDS011;51482;47.014;7.652;2022-10-19T13:57:15;7.13;;;6.47;;
64950;SDS011;51482;47.014;7.652;2022-10-19T14:03:10;11.43;;;9.20;;
64950;SDS011;51482;47.014;7.652;2022-10-19T14:08:39;11.45;;;9.63;;
64950;SDS011;51482;47.014;7.652;2022-10-19T14:11:32;12.90;;;8.30;;
64950;SDS011;51482;47.014;7.652;2022-10-19T14:14:11;9.93;;;7.78;;
64950;SDS011;51482;47.014;7.652;2022-10-19T14:19:42;9.38;;;7.55;;
64950;SDS011;51482;47.014;7.652;2022-10-19T14:24:43;8.15;;;6.65;;
64950;SDS011;51482;47.014;7.652;2022-10-19T14:27:10;11.13;;;8.68;;
64950;SDS011;51482;47.014;7.652;2022-10-19T14:29:47;15.93;;;8.38;;
64950;SDS011;51482;47.014;7.652;2022-10-19T14:32:14;12.45;;;8.82;;
64950;SDS011;51482;47.014;7.652;2022-10-19T14:34:45;11.20;;;10.07;;
64950;SDS011;51482;47.014;7.652;2022-10-19T14:37:22;9.85;;;7.82;;
64950;SDS011;51482;47.014;7.652;2022-10-19T14:42:44;11.00;;;8.63;;
64950;SDS011;51482;47.014;7.652;2022-10-19T14:45:12;13.82;;;9.85;;
64950;SDS011;51482;47.014;7.652;2022-10-19T14:47:49;13.25;;;10.65;;
64950;SDS011;51482;47.014;7.652;2022-10-19T14:50:42;14.23;;;10.02;;
64950;SDS011;51482;47.014;7.652;2022-10-19T14:55:57;11.13;;;9.95;;
64950;SDS011;51482;47.014;7.652;2022-10-19T14:58:29;10.90;;;9.57;;
64950;SDS011;51482;47.014;7.652;2022-10-19T15:01:00;14.82;;;8.75;;
64950;SDS011;51482;47.014;7.652;2022-10-19T15:03:26;11.32;;;8.13;;
64950;SDS011;51482;47.014;7.652;2022-10-19T15:05:55;15.57;;;8.98;;
64950;SDS011;51482;47.014;7.652;2022-10-19T15:08:34;12.30;;;7.68;;
64950;SDS011;51482;47.014;7.652;2022-10-19T15:11:06;9.35;;;8.45;;
64950;SDS011;51482;47.014;7.652;2022-10-19T15:13:44;10.15;;;8.57;;
64950;SDS011;51482;47.014;7.652;2022-10-19T15:19:14;13.73;;;9.25;;
64950;SDS011;51482;47.014;7.652;2022-10-19T15:21:40;12.90;;;8.07;;
64950;SDS011;51482;47.014;7.652;2022-10-19T15:24:07;9.63;;;8.35;;
64950;SDS011;51482;47.014;7.652;2022-10-19T15:26:49;8.63;;;7.03;;
64950;SDS011;51482;47.014;7.652;2022-10-19T15:29:27;11.00;;;8.00;;
64950;SDS011;51482;47.014;7.652;2022-10-19T15:31:53;8.75;;;7.88;;
64950;SDS011;51482;47.014;7.652;2022-10-19T15:34:29;13.63;;;8.50;;
64950;SDS011;51482;47.014;7.652;2022-10-19T15:37:00;10.63;;;8.30;;
64950;SDS011;51482;47.014;7.652;2022-10-19T15:39:30;9.32;;;8.43;;
64950;SDS011;51482;47.014;7.652;2022-10-19T15:44:54;10.82;;;7.78;;
64950;SDS011;51482;47.014;7.652;2022-10-19T15:47:21;13.10;;;7.90;;
64950;SDS011;51482;47.014;7.652;2022-10-19T15:49:50;11.02;;;7.88;;
64950;SDS011;51482;47.014;7.652;2022-10-19T15:52:20;10.73;;;7.22;;
64950;SDS011;51482;47.014;7.652;2022-10-19T15:54:48;12.65;;;7.07;;
64950;SDS011;51482;47.014;7.652;2022-10-19T15:59:49;11.25;;;7.50;;
64950;SDS011;51482;47.014;7.652;2022-10-19T16:02:15;8.18;;;7.35;;
64950;SDS011;51482;47.014;7.652;2022-10-19T16:04:40;8.77;;;7.18;;
64950;SDS011;51482;47.014;7.652;2022-10-19T16:07:07;7.55;;;6.20;;
64950;SDS011;51482;47.014;7.652;2022-10-19T16:09:38;10.27;;;6.68;;
64950;SDS011;51482;47.014;7.652;2022-10-19T16:12:04;7.80;;;6.80;;
64950;SDS011;51482;47.014;7.652;2022-10-19T16:14:29;8.48;;;6.85;;
64950;SDS011;51482;47.014;7.652;2022-10-19T16:16:55;9.10;;;7.10;;
64950;SDS011;51482;47.014;7.652;2022-10-19T16:19:20;12.77;;;9.43;;
64950;SDS011;51482;47.014;7.652;2022-10-19T16:21:46;12.48;;;9.25;;
64950;SDS011;51482;47.014;7.652;2022-10-19T16:24:12;12.73;;;8.13;;
64950;SDS011;51482;47.014;7.652;2022-10-19T16:26:37;11.68;;;8.88;;
64950;SDS011;51482;47.014;7.652;2022-10-19T16:29:03;11.68;;;8.05;;
64950;SDS011;51482;47.014;7.652;2022-10-19T16:31:28;12.55;;;7.93;;
64950;SDS011;51482;47.014;7.652;2022-10-19T16:33:55;10.57;;;9.18;;
64950;SDS011;51482;47.014;7.652;2022-10-19T16:36:21;10.35;;;7.55;;
64950;SDS011;51482;47.014;7.652;2022-10-19T16:38:46;12.57;;;7.93;;
64950;SDS011;51482;47.014;7.652;2022-10-19T16:41:12;12.93;;;7.75;;
64950;SDS011;51482;47.014;7.652;2022-10-19T16:43:38;9.52;;;7.88;;
64950;SDS011;51482;47.014;7.652;2022-10-19T16:46:04;10.85;;;7.80;;
64950;SDS011;51482;47.014;7.652;2022-10-19T16:48:30;12.45;;;7.93;;
64950;SDS011;51482;47.014;7.652;2022-10-19T16:51:18;12.15;;;7.97;;
64950;SDS011;51482;47.014;7.652;2022-10-19T16:53:42;12.95;;;8.70;;
64950;SDS011;51482;47.014;7.652;2022-10-19T16:56:08;13.85;;;9.82;;
64950;SDS011;51482;47.014;7.652;2022-10-19T16:58:39;13.38;;;8.93;;
64950;SDS011;51482;47.014;7.652;2022-10-19T17:01:06;16.88;;;9.45;;
64950;SDS011;51482;47.014;7.652;2022-10-19T17:03:36;11.40;;;9.18;;
64950;SDS011;51482;47.014;7.652;2022-10-19T17:06:05;12.38;;;9.02;;
64950;SDS011;51482;47.014;7.652;2022-10-19T17:08:31;12.05;;;9.75;;
64950;SDS011;51482;47.014;7.652;2022-10-19T17:10:59;14.07;;;9.98;;
64950;SDS011;51482;47.014;7.652;2022-10-19T17:13:33;10.20;;;9.00;;
64950;SDS011;51482;47.014;7.652;2022-10-19T17:16:01;17.65;;;9.10;;
64950;SDS011;51482;47.014;7.652;2022-10-19T17:18:27;14.45;;;9.23;;
64950;SDS011;51482;47.014;7.652;2022-10-19T17:20:52;10.38;;;8.25;;
64950;SDS011;51482;47.014;7.652;2022-10-19T17:23:18;11.80;;;9.52;;
64950;SDS011;51482;47.014;7.652;2022-10-19T17:25:47;9.77;;;7.78;;
64950;SDS011;51482;47.014;7.652;2022-10-19T17:28:13;11.95;;;9.73;;